Terminal Aerodrome Forecast
Issued by NWS Burlington, VT

Home | Current Version | Previous Version | Text Only | Print | Product List | Glossary On
Versions: 1 2 3 4 5 6 7 8 9 10 11 12 13 14 15 16 17 18 19 20
800
FTUS41 KBTV 121740
TAFBTV
TAF
KBTV 121740Z 1218/1318 19015G22KT P6SM FEW045 SCT150
     FM130200 18013KT P6SM BKN070
     FM130500 19012KT P6SM VCSH OVC050
     FM130700 29012KT 1SM -SHSN BR OVC025
     FM130800 31012G20KT P6SM -SHSN OVC020
     FM131300 31013KT P6SM VCSH BKN025=

USA.gov is the U.S. government's official web portal to all federal, state and local government web resources and services.